Aeroporto :
LOGIN :

Iscrizione | Disclaimer

   EN    FR    IT 

 










Sommario :    VFR   VFR Marginale   IFR   IFR Intensivo   IFR Molto Intensivo
Visibilità : 
Base nubi : 
>= 8 km
>= 3000ft
5 / 8 km
1000 / 3000 ft
1500m / 5 km
500 / 1000 ft
800 / 1500m
200 / 500 ft
< 800m
< 200 ft
Simboli :   Temporali  Nebbia  Neve Forte  Precipitazioni Forti  Vento > 20 kt
SIGMETs :   Varie  Temporali  Ghiacco  Turbolenza  Onda orograficha  Ceneri Vulcaniche






- Altitudine del aeroporto : 230 ft
- Codice IATA : VAR


LBWN - Varna

ULTIMO METAR :
  • 221200Z 02017KT 9999 OVC032 07/04 Q1021 TEMPO RA

METARs OBSOLETI :
  • 221130Z 03019G29KT 9999 OVC030 08/04 Q1020 TEMPO RA
  • 221100Z 04021KT 9999 FEW024 OVC035 09/04 Q1021 TEMPO RA
  • 221030Z 04021KT 9999 FEW025 OVC036 09/04 Q1021 TEMPO RA
  • 221000Z 04022KT 9999 FEW025 OVC034 09/05 Q1021 NOSIG
  • 220930Z 05022G32KT 9999 FEW025 OVC034 09/05 Q1021 NOSIG

TAF TAF LBWN
Valido dal 22 a 12 ore il 23 a 12 ore UTC


221100Z 2212/2312 03018KT 9999 SCT015 BKN025 OVC040
PROB40
TEMPO 2212/2214 03022G32KT
TEMPO 2212/2220 5000 RA FEW010 BKN015 OVC025
BECMG 2220/2222 4000 RA BKN010 OVC020
BECMG 2307/2309 33010KT 9999 NSW SCT015 SCT020 OVC030



MetMap, La meteo Aeronautica in un colpo d'occhio ! - Copyright ORBIFLY Dicembre 2007 - Disclaimer

ORBIFLY MET'MAP TEAM :

Programmazione e sviluppo : Alexandra Zaïnal
Concezione e sviluppo : Baudouin d'Aumeries
Co-Programmazione e sviluppo : Marc-Olivier Méhu
Supporto tecnico e logistico : Manuel Goepfert
Aiuto per la traduzione : Arnaldo La Scala

Contatto : metmap@orbifly.com




FONTI E CREDITI :

   NOAA